createdAt,value
2018-07-26T00:00:20.212Z,3.10
2018-07-26T00:02:48.492Z,4.20
2018-07-26T00:05:16.705Z,4.13
2018-07-26T00:07:44.773Z,3.60
2018-07-26T00:10:13.126Z,3.47
2018-07-26T00:12:41.402Z,2.97
2018-07-26T00:15:09.678Z,3.50
2018-07-26T00:17:38.005Z,3.70
2018-07-26T00:20:06.960Z,3.50
2018-07-26T00:22:35.216Z,3.47
2018-07-26T00:25:03.412Z,4.23
2018-07-26T00:27:31.728Z,4.40
2018-07-26T00:30:00.545Z,4.60
2018-07-26T00:32:29.350Z,3.80
2018-07-26T00:34:57.740Z,4.20
2018-07-26T00:37:26.080Z,3.10
2018-07-26T00:39:54.204Z,3.80
2018-07-26T00:42:22.443Z,3.23
2018-07-26T00:44:50.683Z,3.43
2018-07-26T00:47:18.919Z,3.30
2018-07-26T00:49:47.083Z,3.33
2018-07-26T00:52:16.010Z,3.30
2018-07-26T00:54:44.047Z,3.90
2018-07-26T00:57:12.395Z,3.30
2018-07-26T00:59:40.547Z,3.97
2018-07-26T01:02:08.730Z,3.63
2018-07-26T01:04:36.923Z,3.80
2018-07-26T01:07:05.205Z,3.43
2018-07-26T01:09:33.542Z,2.83
2018-07-26T01:12:01.697Z,3.30
2018-07-26T01:14:31.059Z,4.70
2018-07-26T01:16:59.373Z,4.33
2018-07-26T01:19:27.599Z,3.87
2018-07-26T01:21:55.931Z,3.67
2018-07-26T01:24:24.171Z,3.43
2018-07-26T01:26:52.523Z,3.83
2018-07-26T01:29:20.819Z,3.40
2018-07-26T01:31:53.083Z,4.50
2018-07-26T01:34:22.805Z,4.57
2018-07-26T01:36:51.309Z,4.40
2018-07-26T01:39:19.475Z,4.13
2018-07-26T01:41:48.305Z,4.17
2018-07-26T01:44:21.973Z,3.60
2018-07-26T01:46:50.110Z,3.80
2018-07-26T01:49:18.635Z,4.70
2018-07-26T01:51:46.827Z,4.33
2018-07-26T01:54:15.552Z,3.53
2018-07-26T01:56:43.942Z,3.10
2018-07-26T01:59:12.165Z,3.13
2018-07-26T02:01:40.601Z,3.30
2018-07-26T02:04:08.952Z,4.30
2018-07-26T02:06:37.243Z,3.93
2018-07-26T02:09:07.844Z,4.00
2018-07-26T02:11:35.956Z,4.47
2018-07-26T02:14:04.654Z,4.40
2018-07-26T02:16:32.862Z,4.63
2018-07-26T02:19:01.167Z,4.27
2018-07-26T02:21:29.289Z,4.27
2018-07-26T02:23:57.560Z,4.57
2018-07-26T02:26:25.747Z,4.27
2018-07-26T02:28:53.971Z,4.20
2018-07-26T02:31:22.149Z,4.70
2018-07-26T02:33:50.580Z,4.10
2018-07-26T02:36:18.828Z,3.93
2018-07-26T02:38:47.037Z,4.13
2018-07-26T02:41:15.193Z,5.03
2018-07-26T02:43:43.489Z,4.83
2018-07-26T02:46:11.671Z,4.30
2018-07-26T02:48:39.815Z,3.93
2018-07-26T02:51:08.019Z,4.23
2018-07-26T02:53:36.333Z,3.23
2018-07-26T02:56:04.733Z,3.70
2018-07-26T02:58:32.873Z,3.80
2018-07-26T03:01:01.116Z,4.27
2018-07-26T03:03:29.383Z,4.63
2018-07-26T03:05:57.597Z,5.20
2018-07-26T03:08:25.952Z,3.90
2018-07-26T03:10:54.181Z,4.53
2018-07-26T03:13:22.503Z,3.77
2018-07-26T03:15:50.619Z,3.77
2018-07-26T03:18:18.838Z,4.90
2018-07-26T03:20:47.640Z,3.73
2018-07-26T03:23:16.726Z,3.83
2018-07-26T03:25:44.844Z,4.50
2018-07-26T03:28:13.259Z,3.87
2018-07-26T03:30:41.378Z,4.03
2018-07-26T03:33:09.494Z,3.50
2018-07-26T03:35:37.783Z,4.57
2018-07-26T03:38:06.266Z,5.10
2018-07-26T03:40:34.651Z,5.10
2018-07-26T03:43:02.978Z,4.60
2018-07-26T03:45:31.254Z,4.20
2018-07-26T03:47:59.356Z,4.80
2018-07-26T03:50:27.530Z,3.77
2018-07-26T03:52:55.629Z,4.90
2018-07-26T03:55:23.974Z,4.47
2018-07-26T03:57:52.304Z,4.80
2018-07-26T04:00:20.637Z,4.17
2018-07-26T04:02:48.758Z,4.37
2018-07-26T04:05:17.101Z,4.10
2018-07-26T04:07:45.253Z,4.77
2018-07-26T04:10:14.191Z,3.73
2018-07-26T04:12:42.236Z,4.20
2018-07-26T04:15:10.769Z,4.40
2018-07-26T04:17:38.927Z,4.83
2018-07-26T04:20:07.274Z,4.80
2018-07-26T04:22:35.461Z,4.53
2018-07-26T04:25:03.847Z,4.60
2018-07-26T04:27:32.009Z,4.17
2018-07-26T04:30:00.319Z,4.50
2018-07-26T04:32:28.667Z,5.40
2018-07-26T04:34:57.023Z,4.80
2018-07-26T04:37:25.263Z,4.90
2018-07-26T04:39:53.435Z,5.50
2018-07-26T04:42:21.605Z,4.97
2018-07-26T04:44:49.921Z,5.83
2018-07-26T04:47:18.197Z,6.27
2018-07-26T04:49:46.416Z,5.83
2018-07-26T04:52:14.637Z,5.23
2018-07-26T04:54:42.835Z,4.30
2018-07-26T04:57:10.954Z,5.23
2018-07-26T04:59:39.136Z,4.63
2018-07-26T05:02:07.486Z,5.27
2018-07-26T05:04:35.834Z,4.90
2018-07-26T05:07:04.086Z,5.00
2018-07-26T05:09:32.316Z,4.13
2018-07-26T05:12:00.640Z,4.37
2018-07-26T05:14:28.894Z,5.07
2018-07-26T05:16:57.108Z,4.10
2018-07-26T05:19:25.308Z,4.73
2018-07-26T05:21:53.361Z,4.17
2018-07-26T05:24:21.559Z,3.80
2018-07-26T05:26:49.748Z,4.80
2018-07-26T05:29:18.534Z,5.17
2018-07-26T05:31:46.890Z,4.53
2018-07-26T05:34:15.038Z,3.80
2018-07-26T05:36:43.314Z,5.43
2018-07-26T05:39:11.698Z,4.83
2018-07-26T05:41:40.592Z,5.27
2018-07-26T05:44:08.781Z,5.87
2018-07-26T05:46:37.817Z,5.30
2018-07-26T05:49:06.049Z,5.13
2018-07-26T05:51:34.193Z,5.57
2018-07-26T05:54:02.481Z,5.60
2018-07-26T05:56:30.723Z,4.60
2018-07-26T05:58:58.837Z,4.53
2018-07-26T06:01:27.062Z,4.20
2018-07-26T06:03:55.677Z,3.63
2018-07-26T06:06:23.858Z,6.00
2018-07-26T06:08:51.965Z,3.60
2018-07-26T06:11:20.368Z,4.37
2018-07-26T06:13:48.465Z,5.28
2018-07-26T06:16:16.865Z,4.78
2018-07-26T06:18:45.067Z,4.00
2018-07-26T06:21:13.227Z,4.33
2018-07-26T06:23:41.843Z,3.87
2018-07-26T06:26:10.701Z,4.40
2018-07-26T06:28:39.063Z,4.42
2018-07-26T06:31:08.087Z,4.60
2018-07-26T06:33:36.298Z,4.37
2018-07-26T06:36:04.476Z,4.17
2018-07-26T06:38:32.644Z,4.37
2018-07-26T06:41:00.779Z,4.05
2018-07-26T06:43:29.127Z,4.00
2018-07-26T06:45:58.098Z,4.20
2018-07-26T06:48:26.244Z,3.77
2018-07-26T06:50:54.374Z,4.15
2018-07-26T06:53:22.732Z,4.10
2018-07-26T06:55:50.953Z,3.87
2018-07-26T06:58:19.211Z,4.03
2018-07-26T07:00:47.524Z,3.55
2018-07-26T07:03:16.253Z,3.67
2018-07-26T07:05:45.076Z,2.70
2018-07-26T07:08:13.236Z,3.45
2018-07-26T07:10:41.408Z,3.20
2018-07-26T07:13:10.052Z,3.20
2018-07-26T07:15:38.172Z,3.25
2018-07-26T07:18:06.550Z,3.10
2018-07-26T07:20:34.733Z,3.22
2018-07-26T07:23:02.900Z,3.25
2018-07-26T07:25:31.787Z,2.60
2018-07-26T07:27:59.941Z,2.90
2018-07-26T07:30:28.124Z,2.70
2018-07-26T07:32:56.392Z,2.95
2018-07-26T07:35:24.630Z,2.75
2018-07-26T07:37:53.997Z,2.30
2018-07-26T07:40:22.222Z,3.20
2018-07-26T07:42:50.384Z,4.60
2018-07-26T07:45:18.812Z,3.55
2018-07-26T07:47:47.879Z,3.40
2018-07-26T07:50:17.195Z,4.10
2018-07-26T07:52:45.790Z,4.35
2018-07-26T07:55:15.299Z,4.67
2018-07-26T07:57:44.678Z,4.25
2018-07-26T08:00:12.990Z,4.83
2018-07-26T08:02:41.283Z,3.47
2018-07-26T08:05:09.760Z,3.25
2018-07-26T08:07:38.075Z,2.87
2018-07-26T08:10:08.131Z,3.42
2018-07-26T08:12:36.557Z,3.50
2018-07-26T08:15:05.944Z,3.40
2018-07-26T08:17:34.555Z,2.98
2018-07-26T08:20:02.729Z,3.30
2018-07-26T08:22:31.210Z,2.45
2018-07-26T08:24:59.464Z,2.72
2018-07-26T08:27:27.811Z,3.22
2018-07-26T08:29:56.387Z,2.60
2018-07-26T08:32:24.783Z,2.40
2018-07-26T08:34:53.249Z,2.90
2018-07-26T08:37:21.557Z,2.70
2018-07-26T08:39:49.927Z,2.98
2018-07-26T08:42:18.362Z,2.45
2018-07-26T08:44:46.579Z,2.70
2018-07-26T08:47:14.847Z,2.70
2018-07-26T08:49:43.081Z,2.80
2018-07-26T08:52:11.231Z,2.80
2018-07-26T08:54:39.406Z,2.47
2018-07-26T08:57:07.752Z,2.77
2018-07-26T08:59:36.656Z,2.65
2018-07-26T09:02:05.768Z,2.70
2018-07-26T09:04:34.009Z,2.75
2018-07-26T09:07:02.424Z,2.40
2018-07-26T09:09:30.668Z,2.20
2018-07-26T09:12:00.000Z,2.72
2018-07-26T09:14:28.306Z,2.20
2018-07-26T09:16:56.532Z,2.00
2018-07-26T09:19:24.892Z,2.05
2018-07-26T09:21:53.102Z,2.33
2018-07-26T09:24:21.373Z,2.22
2018-07-26T09:26:49.516Z,2.20
2018-07-26T09:29:17.754Z,2.22
2018-07-26T09:31:46.069Z,2.08
2018-07-26T09:34:14.350Z,1.90
2018-07-26T09:36:42.494Z,2.10
2018-07-26T09:39:14.076Z,2.27
2018-07-26T09:41:42.325Z,1.90
2018-07-26T09:44:10.459Z,2.00
2018-07-26T09:46:38.818Z,2.30
2018-07-26T09:49:06.980Z,2.10
2018-07-26T09:51:35.624Z,1.90
2018-07-26T09:54:04.111Z,2.02
2018-07-26T09:56:33.011Z,2.15
2018-07-26T09:59:01.458Z,2.10
2018-07-26T10:01:32.497Z,2.12
2018-07-26T10:04:00.645Z,1.80
2018-07-26T10:06:28.813Z,1.90
2018-07-26T10:08:57.226Z,2.15
2018-07-26T10:11:26.265Z,2.00
2018-07-26T10:13:55.038Z,1.90
2018-07-26T10:16:23.288Z,1.98
2018-07-26T10:18:51.713Z,1.95
2018-07-26T10:21:19.799Z,1.90
2018-07-26T10:23:47.969Z,1.62
2018-07-26T10:26:16.201Z,1.82
2018-07-26T10:28:44.440Z,2.00
2018-07-26T10:31:12.600Z,1.80
2018-07-26T10:33:40.874Z,1.90
2018-07-26T10:36:10.004Z,2.30
2018-07-26T10:38:38.066Z,2.12
2018-07-26T10:41:07.398Z,2.25
2018-07-26T10:43:35.644Z,1.87
2018-07-26T10:46:04.205Z,2.30
2018-07-26T10:48:32.372Z,2.10
2018-07-26T10:51:00.476Z,2.40
2018-07-26T10:53:28.621Z,2.45
2018-07-26T10:55:56.799Z,1.90
2018-07-26T10:58:24.915Z,2.20
2018-07-26T11:00:53.064Z,2.98
2018-07-26T11:03:22.070Z,2.00
2018-07-26T11:05:50.306Z,2.30
2018-07-26T11:08:19.188Z,2.30
2018-07-26T11:10:47.388Z,2.05
2018-07-26T11:13:15.772Z,2.10
2018-07-26T11:15:44.044Z,2.00
2018-07-26T11:18:12.306Z,2.10
2018-07-26T11:20:40.458Z,1.95
2018-07-26T11:23:08.685Z,2.30
2018-07-26T11:25:37.066Z,2.30
2018-07-26T11:28:06.112Z,2.08
2018-07-26T11:30:35.077Z,1.80
2018-07-26T11:33:03.447Z,2.05
2018-07-26T11:35:31.795Z,2.10
2018-07-26T11:38:00.489Z,2.40
2018-07-26T11:40:28.916Z,2.40
2018-07-26T11:42:57.763Z,2.00
2018-07-26T11:45:25.952Z,2.27
2018-07-26T11:47:54.305Z,2.75
2018-07-26T11:50:22.878Z,2.05
2018-07-26T11:52:50.943Z,1.98
2018-07-26T11:55:19.237Z,2.20
2018-07-26T11:57:47.471Z,1.67
2018-07-26T12:00:15.672Z,2.25
2018-07-26T12:02:44.190Z,2.00
2018-07-26T12:05:12.457Z,2.40
2018-07-26T12:07:41.915Z,2.50
2018-07-26T12:10:10.179Z,2.10
2018-07-26T12:12:38.436Z,2.58
2018-07-26T12:15:07.167Z,2.52
2018-07-26T12:17:35.465Z,2.30
2018-07-26T12:20:04.250Z,2.42
2018-07-26T12:22:32.477Z,2.65
2018-07-26T12:25:00.701Z,1.77
2018-07-26T12:27:28.995Z,2.37
2018-07-26T12:29:57.117Z,2.47
2018-07-26T12:32:25.529Z,2.60
2018-07-26T12:34:53.715Z,2.50
2018-07-26T12:37:22.039Z,2.00
2018-07-26T12:39:50.257Z,2.30
2018-07-26T12:42:18.635Z,2.30
2018-07-26T12:44:46.737Z,2.30
2018-07-26T12:47:15.078Z,2.50
2018-07-26T12:49:43.291Z,2.05
2018-07-26T12:52:16.655Z,2.10
2018-07-26T12:54:44.738Z,2.70
2018-07-26T12:57:12.937Z,2.55
2018-07-26T12:59:41.121Z,2.27
2018-07-26T13:02:10.059Z,2.10
2018-07-26T13:04:38.985Z,2.60
2018-07-26T13:07:07.186Z,2.12
2018-07-26T13:09:35.433Z,2.12
2018-07-26T13:12:03.714Z,2.40
2018-07-26T13:14:31.931Z,2.60
2018-07-26T13:17:00.205Z,2.92
2018-07-26T13:19:28.494Z,2.90
2018-07-26T13:21:56.657Z,2.30
2018-07-26T13:24:25.040Z,2.55
2018-07-26T13:26:53.171Z,2.90
2018-07-26T13:29:21.442Z,2.52
2018-07-26T13:31:49.650Z,3.15
2018-07-26T13:34:18.520Z,3.22
2018-07-26T13:36:46.746Z,3.17
2018-07-26T13:39:14.901Z,3.35
2018-07-26T13:41:43.112Z,3.10
2018-07-26T13:44:11.278Z,3.27
2018-07-26T13:46:39.528Z,2.77
2018-07-26T13:49:07.673Z,3.20
2018-07-26T13:51:35.960Z,3.00
2018-07-26T13:54:04.406Z,3.08
2018-07-26T13:56:32.562Z,3.20
2018-07-26T13:59:00.654Z,3.40
2018-07-26T14:01:28.872Z,3.52
2018-07-26T14:03:57.103Z,3.25
2018-07-26T14:06:25.281Z,3.40
2018-07-26T14:08:53.605Z,3.70
2018-07-26T14:11:21.828Z,3.40
2018-07-26T14:13:49.978Z,3.58
2018-07-26T14:16:18.276Z,3.33
2018-07-26T14:18:46.757Z,3.98
2018-07-26T14:21:15.714Z,3.45
2018-07-26T14:23:44.517Z,3.65
2018-07-26T14:26:13.175Z,3.77
2018-07-26T14:28:41.561Z,3.52
2018-07-26T14:31:10.962Z,3.60
2018-07-26T14:33:39.151Z,3.40
2018-07-26T14:36:07.362Z,3.58
2018-07-26T14:38:35.592Z,3.83
2018-07-26T14:41:03.929Z,3.70
2018-07-26T14:43:32.146Z,3.72
2018-07-26T14:46:00.378Z,3.83
2018-07-26T14:48:28.677Z,3.83
2018-07-26T14:50:56.760Z,3.87
2018-07-26T14:53:24.941Z,3.60
2018-07-26T14:55:53.216Z,3.52
2018-07-26T14:58:22.742Z,4.00
2018-07-26T15:00:51.061Z,4.00
2018-07-26T15:03:19.405Z,3.83
2018-07-26T15:05:48.112Z,4.40
2018-07-26T15:08:16.355Z,4.78
2018-07-26T15:10:45.588Z,4.08
2018-07-26T15:13:14.167Z,4.20
2018-07-26T15:15:42.411Z,4.53
2018-07-26T15:18:11.709Z,4.53
2018-07-26T15:20:39.969Z,3.50
2018-07-26T15:23:08.188Z,4.20
2018-07-26T15:25:36.440Z,4.35
2018-07-26T15:28:04.717Z,4.92
2018-07-26T15:30:32.970Z,4.97
2018-07-26T15:33:01.143Z,3.98
2018-07-26T15:35:29.374Z,4.55
2018-07-26T15:37:57.599Z,4.62
2018-07-26T15:40:25.893Z,5.62
2018-07-26T15:42:54.132Z,4.80
2018-07-26T15:45:22.346Z,5.40
2018-07-26T15:47:51.254Z,5.15
2018-07-26T15:50:19.508Z,5.40
2018-07-26T15:52:47.752Z,5.65
2018-07-26T15:55:16.168Z,5.40
2018-07-26T15:57:44.387Z,4.75
2018-07-26T16:00:12.495Z,5.30
2018-07-26T16:02:40.804Z,5.37
2018-07-26T16:05:09.019Z,4.60
2018-07-26T16:07:37.744Z,4.67
2018-07-26T16:10:07.614Z,4.67
2018-07-26T16:12:36.114Z,3.95
2018-07-26T16:15:07.558Z,4.17
2018-07-26T16:17:35.862Z,4.25
2018-07-26T16:20:06.549Z,5.40
2018-07-26T16:22:34.761Z,5.03
2018-07-26T16:25:03.281Z,4.37
2018-07-26T16:27:31.501Z,5.12
2018-07-26T16:30:00.284Z,4.50
2018-07-26T16:32:29.108Z,5.35
2018-07-26T16:34:58.807Z,3.80
2018-07-26T16:37:27.435Z,4.90
2018-07-26T16:39:55.670Z,4.53
2018-07-26T16:42:23.887Z,4.10
2018-07-26T16:44:52.450Z,4.70
2018-07-26T16:47:20.803Z,4.62
2018-07-26T16:49:49.960Z,4.90
2018-07-26T16:52:18.113Z,5.00
2018-07-26T16:54:46.383Z,4.33
2018-07-26T16:57:15.356Z,4.65
2018-07-26T16:59:43.524Z,5.30
2018-07-26T17:02:11.627Z,4.97
2018-07-26T17:04:39.875Z,4.72
2018-07-26T17:07:08.357Z,4.30
2018-07-26T17:09:36.502Z,4.60
2018-07-26T17:12:04.630Z,4.20
2018-07-26T17:14:32.882Z,5.67
2018-07-26T17:17:01.060Z,4.72
2018-07-26T17:19:29.414Z,5.20
2018-07-26T17:21:57.622Z,5.12
2018-07-26T17:24:25.842Z,4.70
2018-07-26T17:26:53.974Z,5.15
2018-07-26T17:29:22.272Z,4.67
2018-07-26T17:31:51.289Z,5.20
2018-07-26T17:34:19.814Z,5.28
2018-07-26T17:36:47.930Z,4.58
2018-07-26T17:39:16.401Z,4.70
2018-07-26T17:41:44.704Z,5.67
2018-07-26T17:44:12.935Z,5.53
2018-07-26T17:46:41.344Z,4.70
2018-07-26T17:49:09.557Z,5.50
2018-07-26T17:51:37.729Z,5.07
2018-07-26T17:54:06.035Z,6.17
2018-07-26T17:56:34.310Z,5.28
2018-07-26T17:59:02.500Z,5.30
2018-07-26T18:01:30.843Z,5.17
2018-07-26T18:03:58.988Z,5.00
2018-07-26T18:06:27.241Z,4.50
2018-07-26T18:08:55.525Z,5.40
2018-07-26T18:11:23.716Z,4.50
2018-07-26T18:13:52.019Z,4.83
2018-07-26T18:16:20.277Z,5.07
2018-07-26T18:18:48.549Z,5.27
2018-07-26T18:21:16.847Z,4.77
2018-07-26T18:23:45.099Z,4.80
2018-07-26T18:26:13.528Z,5.27
2018-07-26T18:28:41.733Z,5.33
2018-07-26T18:31:10.544Z,4.77
2018-07-26T18:33:38.801Z,4.70
2018-07-26T18:36:06.958Z,4.20
2018-07-26T18:38:35.208Z,4.00
2018-07-26T18:41:04.428Z,4.77
2018-07-26T18:43:32.507Z,5.80
2018-07-26T18:46:00.751Z,5.10
2018-07-26T18:48:29.146Z,4.67
2018-07-26T18:50:57.936Z,4.50
2018-07-26T18:53:26.035Z,4.93
2018-07-26T18:55:54.318Z,4.77
2018-07-26T18:58:23.374Z,4.57
2018-07-26T19:00:51.699Z,5.00
2018-07-26T19:03:19.969Z,5.20
2018-07-26T19:05:48.900Z,4.67
2018-07-26T19:08:17.145Z,4.43
2018-07-26T19:10:45.382Z,4.70
2018-07-26T19:13:13.625Z,4.50
2018-07-26T19:15:41.894Z,4.90
2018-07-26T19:18:11.155Z,6.03
2018-07-26T19:20:39.750Z,4.97
2018-07-26T19:23:07.967Z,4.80
2018-07-26T19:25:36.212Z,5.17
2018-07-26T19:28:05.122Z,5.40
2018-07-26T19:30:33.435Z,5.43
2018-07-26T19:33:01.745Z,5.10
2018-07-26T19:35:30.336Z,5.30
2018-07-26T19:37:58.500Z,5.53
2018-07-26T19:40:27.628Z,5.23
2018-07-26T19:42:55.922Z,5.13
2018-07-26T19:45:24.100Z,5.57
2018-07-26T19:47:53.176Z,5.30
2018-07-26T19:50:23.470Z,5.40
2018-07-26T19:52:51.820Z,4.90
2018-07-26T19:55:20.054Z,5.00
2018-07-26T19:57:48.245Z,5.90
2018-07-26T20:00:16.552Z,5.20
2018-07-26T20:02:44.801Z,5.30
2018-07-26T20:05:13.477Z,5.03
2018-07-26T20:07:42.384Z,5.30
2018-07-26T20:10:12.301Z,5.53
2018-07-26T20:12:40.921Z,5.20
2018-07-26T20:15:09.235Z,5.60
2018-07-26T20:17:38.740Z,5.13
2018-07-26T20:20:13.810Z,5.30
2018-07-26T20:22:42.345Z,5.10
2018-07-26T20:25:10.663Z,5.47
2018-07-26T20:27:39.072Z,5.00
2018-07-26T20:30:08.947Z,5.53
2018-07-26T20:32:37.471Z,4.47
2018-07-26T20:35:06.010Z,5.50
2018-07-26T20:37:34.203Z,5.50
2018-07-26T20:40:03.177Z,5.63
2018-07-26T20:42:31.356Z,5.27
2018-07-26T20:44:59.573Z,5.83
2018-07-26T20:47:28.845Z,4.87
2018-07-26T20:50:01.327Z,4.97
2018-07-26T20:52:30.425Z,4.77
2018-07-26T20:54:59.777Z,5.27
2018-07-26T20:57:28.411Z,4.83
2018-07-26T20:59:56.541Z,5.03
2018-07-26T21:02:24.726Z,5.20
2018-07-26T21:07:31.076Z,5.50
2018-07-26T21:10:09.244Z,5.07
2018-07-26T21:12:37.688Z,5.03
2018-07-26T21:15:09.590Z,5.20
2018-07-26T21:17:38.219Z,5.50
2018-07-26T21:20:07.940Z,6.13
2018-07-26T21:22:46.290Z,5.70
2018-07-26T21:25:22.206Z,5.33
2018-07-26T21:27:51.842Z,5.40
2018-07-26T21:30:35.488Z,5.47
2018-07-26T21:33:05.578Z,5.47
2018-07-26T21:35:33.744Z,4.40
2018-07-26T21:38:01.971Z,5.30
2018-07-26T21:43:42.365Z,5.40
2018-07-26T21:46:13.925Z,6.20
2018-07-26T21:48:52.033Z,5.10
2018-07-26T21:51:21.680Z,5.50
2018-07-26T21:54:03.191Z,5.17
2018-07-26T21:59:16.169Z,5.00
2018-07-26T22:01:45.048Z,5.97
2018-07-26T22:04:13.590Z,6.53
2018-07-26T22:06:41.859Z,6.17
2018-07-26T22:09:11.067Z,5.90
2018-07-26T22:11:39.875Z,6.10
2018-07-26T22:14:08.588Z,5.47
2018-07-26T22:16:36.956Z,6.60
2018-07-26T22:19:05.307Z,5.57
2018-07-26T22:21:33.470Z,6.27
2018-07-26T22:24:01.660Z,6.47
2018-07-26T22:26:30.993Z,6.07
2018-07-26T22:28:59.259Z,6.93
2018-07-26T22:31:27.910Z,6.40
2018-07-26T22:33:56.850Z,6.07
2018-07-26T22:36:30.344Z,5.17
2018-07-26T22:38:58.516Z,6.57
2018-07-26T22:41:27.923Z,5.30
2018-07-26T22:43:56.351Z,5.90
2018-07-26T22:46:25.461Z,5.47
2018-07-26T22:48:53.602Z,6.20
2018-07-26T22:51:29.248Z,6.93
2018-07-26T22:53:59.980Z,5.97
2018-07-26T22:59:11.009Z,5.93
2018-07-26T23:01:43.832Z,5.83
2018-07-26T23:04:33.471Z,5.60
2018-07-26T23:07:33.542Z,5.77
2018-07-26T23:10:29.300Z,6.10
2018-07-26T23:12:57.432Z,6.10
2018-07-26T23:15:25.632Z,6.13
2018-07-26T23:17:53.745Z,7.07
2018-07-26T23:20:22.104Z,5.40
2018-07-26T23:22:53.012Z,6.40
2018-07-26T23:25:21.424Z,4.87
2018-07-26T23:27:49.716Z,5.90
2018-07-26T23:30:17.994Z,6.23
2018-07-26T23:32:46.258Z,5.43
2018-07-26T23:35:15.923Z,5.57
2018-07-26T23:37:44.936Z,6.37
2018-07-26T23:40:13.327Z,5.60
2018-07-26T23:42:41.519Z,7.10
2018-07-26T23:45:09.628Z,6.13
2018-07-26T23:47:37.752Z,6.50
2018-07-26T23:50:06.222Z,7.07
2018-07-26T23:52:34.693Z,6.20
2018-07-26T23:55:02.934Z,6.43
2018-07-26T23:57:31.100Z,5.83
2018-07-26T23:59:59.905Z,5.93
